createdAt,value
2018-08-28T00:00:09.541Z,0.00
2018-08-28T00:01:09.632Z,0.00
2018-08-28T00:02:09.731Z,0.00
2018-08-28T00:03:09.823Z,0.00
2018-08-28T00:04:09.923Z,0.00
2018-08-28T00:05:10.021Z,0.00
2018-08-28T00:06:10.110Z,0.00
2018-08-28T00:07:10.201Z,0.00
2018-08-28T00:08:10.305Z,0.00
2018-08-28T00:09:10.400Z,0.00
2018-08-28T00:10:10.494Z,0.00
2018-08-28T00:11:10.590Z,0.00
2018-08-28T00:12:10.691Z,0.00
2018-08-28T00:13:10.784Z,0.00
2018-08-28T00:14:10.881Z,0.00
2018-08-28T00:15:10.977Z,0.00
2018-08-28T00:16:11.072Z,0.00
2018-08-28T00:17:11.300Z,0.00
2018-08-28T00:18:11.262Z,0.00
2018-08-28T00:19:11.363Z,0.00
2018-08-28T00:20:11.462Z,0.00
2018-08-28T00:21:11.553Z,0.00
2018-08-28T00:22:11.645Z,0.00
2018-08-28T00:23:11.741Z,0.00
2018-08-28T00:24:11.837Z,0.00
2018-08-28T00:25:11.936Z,0.00
2018-08-28T00:26:12.028Z,0.00
2018-08-28T00:27:12.143Z,0.00
2018-08-28T00:28:12.235Z,0.00
2018-08-28T00:29:12.335Z,0.00
2018-08-28T00:30:12.430Z,0.00
2018-08-28T00:31:12.527Z,0.00
2018-08-28T00:32:12.621Z,0.00
2018-08-28T00:33:12.720Z,0.00
2018-08-28T00:34:12.813Z,0.00
2018-08-28T00:35:12.907Z,0.00
2018-08-28T00:36:13.008Z,0.00
2018-08-28T00:37:13.101Z,0.00
2018-08-28T00:38:13.196Z,0.00
2018-08-28T00:39:13.293Z,0.00
2018-08-28T00:40:13.391Z,0.00
2018-08-28T00:41:13.490Z,0.00
2018-08-28T00:42:13.580Z,0.00
2018-08-28T00:43:13.676Z,0.00
2018-08-28T00:44:13.771Z,0.00
2018-08-28T00:45:13.866Z,0.00
2018-08-28T00:46:13.963Z,0.00
2018-08-28T00:47:14.084Z,0.00
2018-08-28T00:48:14.175Z,0.00
2018-08-28T00:49:14.277Z,0.00
2018-08-28T00:50:14.366Z,0.00
2018-08-28T00:51:14.462Z,0.00
2018-08-28T00:52:14.606Z,0.00
2018-08-28T00:53:14.657Z,0.00
2018-08-28T00:54:14.760Z,0.00
2018-08-28T00:55:14.849Z,0.00
2018-08-28T00:56:14.946Z,0.00
2018-08-28T00:57:15.041Z,0.00
2018-08-28T00:58:15.139Z,0.00
2018-08-28T00:59:15.235Z,0.00
2018-08-28T01:00:15.332Z,0.00
2018-08-28T01:01:15.424Z,0.00
2018-08-28T01:02:15.520Z,0.00
2018-08-28T01:03:15.620Z,0.00
2018-08-28T01:04:15.721Z,0.00
2018-08-28T01:05:15.813Z,0.00
2018-08-28T01:06:15.907Z,0.00
2018-08-28T01:07:16.010Z,0.00
2018-08-28T01:08:16.109Z,0.00
2018-08-28T01:09:16.202Z,0.00
2018-08-28T01:10:16.299Z,0.00
2018-08-28T01:11:16.395Z,0.00
2018-08-28T01:12:16.489Z,0.00
2018-08-28T01:13:16.586Z,0.00
2018-08-28T01:14:16.679Z,0.00
2018-08-28T01:15:16.774Z,0.00
2018-08-28T01:16:16.869Z,0.00
2018-08-28T01:17:16.963Z,0.00
2018-08-28T01:18:17.058Z,0.00
2018-08-28T01:19:17.154Z,0.00
2018-08-28T01:20:17.252Z,0.00
2018-08-28T01:21:17.348Z,0.00
2018-08-28T01:22:17.442Z,0.00
2018-08-28T01:23:17.537Z,0.00
2018-08-28T01:24:17.634Z,0.00
2018-08-28T01:25:17.724Z,0.00
2018-08-28T01:26:17.819Z,0.00
2018-08-28T01:27:17.916Z,0.00
2018-08-28T01:28:18.016Z,0.00
2018-08-28T01:29:18.108Z,0.00
2018-08-28T01:30:18.201Z,0.00
2018-08-28T01:31:18.298Z,0.00
2018-08-28T01:32:18.390Z,0.00
2018-08-28T01:33:18.485Z,0.00
2018-08-28T01:34:18.585Z,0.00
2018-08-28T01:35:18.675Z,0.00
2018-08-28T01:36:18.770Z,0.00
2018-08-28T01:37:18.866Z,0.00
2018-08-28T01:38:18.963Z,0.00
2018-08-28T01:39:19.060Z,0.00
2018-08-28T01:40:19.172Z,0.00
2018-08-28T01:41:19.272Z,0.00
2018-08-28T01:42:19.364Z,0.00
2018-08-28T01:43:19.457Z,0.00
2018-08-28T01:44:19.555Z,0.00
2018-08-28T01:45:19.649Z,0.00
2018-08-28T01:46:19.745Z,0.00
2018-08-28T01:47:19.836Z,0.00
2018-08-28T01:48:19.934Z,0.00
2018-08-28T01:49:20.028Z,0.00
2018-08-28T01:50:20.123Z,0.00
2018-08-28T01:51:20.222Z,0.00
2018-08-28T01:52:20.315Z,0.00
2018-08-28T01:53:20.409Z,0.00
2018-08-28T01:54:20.505Z,0.00
2018-08-28T01:55:20.603Z,0.00
2018-08-28T01:56:20.744Z,0.00
2018-08-28T01:57:20.791Z,0.00
2018-08-28T01:58:20.882Z,0.00
2018-08-28T01:59:20.989Z,0.00
2018-08-28T02:00:21.105Z,0.00
2018-08-28T02:01:21.200Z,0.00
2018-08-28T02:02:21.296Z,0.00
2018-08-28T02:03:21.396Z,0.00
2018-08-28T02:04:21.488Z,0.00
2018-08-28T02:05:21.583Z,0.00
2018-08-28T02:06:21.677Z,0.00
2018-08-28T02:07:21.772Z,0.00
2018-08-28T02:08:21.868Z,0.00
2018-08-28T02:09:21.960Z,0.00
2018-08-28T02:10:22.055Z,0.00
2018-08-28T02:11:22.152Z,0.00
2018-08-28T02:12:22.244Z,0.00
2018-08-28T02:13:22.409Z,0.00
2018-08-28T02:14:22.436Z,0.00
2018-08-28T02:15:22.531Z,0.00
2018-08-28T02:16:22.627Z,0.00
2018-08-28T02:17:22.724Z,0.00
2018-08-28T02:18:22.816Z,0.00
2018-08-28T02:19:22.913Z,0.00
2018-08-28T02:20:23.010Z,0.00
2018-08-28T02:21:23.107Z,0.00
2018-08-28T02:22:23.202Z,0.00
2018-08-28T02:23:23.296Z,0.00
2018-08-28T02:24:23.390Z,0.00
2018-08-28T02:25:23.486Z,0.00
2018-08-28T02:26:23.581Z,0.00
2018-08-28T02:27:23.674Z,0.00
2018-08-28T02:28:23.773Z,0.00
2018-08-28T02:29:23.864Z,0.00
2018-08-28T02:30:23.964Z,0.00
2018-08-28T02:31:24.060Z,0.00
2018-08-28T02:32:24.152Z,0.00
2018-08-28T02:33:24.277Z,0.00
2018-08-28T02:34:24.360Z,0.00
2018-08-28T02:35:24.455Z,0.00
2018-08-28T02:36:24.550Z,0.00
2018-08-28T02:37:24.645Z,0.00
2018-08-28T02:38:24.740Z,0.00
2018-08-28T02:39:24.836Z,0.00
2018-08-28T02:40:24.931Z,0.00
2018-08-28T02:41:25.027Z,0.00
2018-08-28T02:42:25.124Z,0.00
2018-08-28T02:43:25.218Z,0.00
2018-08-28T02:44:25.315Z,0.00
2018-08-28T02:45:25.411Z,0.00
2018-08-28T02:46:25.504Z,0.00
2018-08-28T02:47:25.602Z,0.00
2018-08-28T02:48:25.698Z,0.00
2018-08-28T02:49:25.796Z,0.00
2018-08-28T02:50:25.894Z,0.00
2018-08-28T02:51:25.996Z,0.00
2018-08-28T02:52:26.085Z,0.00
2018-08-28T02:53:26.201Z,0.00
2018-08-28T02:54:26.296Z,0.00
2018-08-28T02:55:26.391Z,0.00
2018-08-28T02:56:26.486Z,0.00
2018-08-28T02:57:26.585Z,0.00
2018-08-28T02:58:26.678Z,0.00
2018-08-28T02:59:26.776Z,0.00
2018-08-28T03:00:26.869Z,0.00
2018-08-28T03:01:26.964Z,0.00
2018-08-28T03:02:27.059Z,0.00
2018-08-28T03:03:27.156Z,0.00
2018-08-28T03:04:27.250Z,0.00
2018-08-28T03:05:27.347Z,0.00
2018-08-28T03:06:27.443Z,0.00
2018-08-28T03:07:27.538Z,0.00
2018-08-28T03:08:27.636Z,4.00
2018-08-28T03:09:27.734Z,0.00
2018-08-28T03:10:27.823Z,0.00
2018-08-28T03:11:27.921Z,0.00
2018-08-28T03:12:28.012Z,0.00
2018-08-28T03:13:28.109Z,0.00
2018-08-28T03:14:28.205Z,0.00
2018-08-28T03:15:28.322Z,0.00
2018-08-28T03:16:28.397Z,0.00
2018-08-28T03:17:28.492Z,0.00
2018-08-28T03:18:28.588Z,0.00
2018-08-28T03:19:28.685Z,0.00
2018-08-28T03:20:28.778Z,0.00
2018-08-28T03:21:28.871Z,0.00
2018-08-28T03:22:28.960Z,0.00
2018-08-28T03:23:29.063Z,0.00
2018-08-28T03:24:29.159Z,0.00
2018-08-28T03:25:29.257Z,0.00
2018-08-28T03:26:29.351Z,0.00
2018-08-28T03:27:29.452Z,0.00
2018-08-28T03:28:29.549Z,0.00
2018-08-28T03:29:29.644Z,0.00
2018-08-28T03:30:29.738Z,0.00
2018-08-28T03:31:29.836Z,0.00
2018-08-28T03:32:29.928Z,0.00
2018-08-28T03:33:30.026Z,0.00
2018-08-28T03:34:30.117Z,0.00
2018-08-28T03:35:30.212Z,0.00
2018-08-28T03:36:30.308Z,0.00
2018-08-28T03:37:30.401Z,0.00
2018-08-28T03:38:30.495Z,0.00
2018-08-28T03:39:30.590Z,0.00
2018-08-28T03:40:30.692Z,0.00
2018-08-28T03:41:30.781Z,0.00
2018-08-28T03:42:30.879Z,0.00
2018-08-28T03:43:30.971Z,0.00
2018-08-28T03:44:31.108Z,0.00
2018-08-28T03:45:31.166Z,0.00
2018-08-28T03:46:31.257Z,0.00
2018-08-28T03:47:31.353Z,0.00
2018-08-28T03:48:31.447Z,0.00
2018-08-28T03:49:31.545Z,0.00
2018-08-28T03:50:31.638Z,0.00
2018-08-28T03:51:31.733Z,4.00
2018-08-28T03:52:31.829Z,4.00
2018-08-28T03:53:31.925Z,4.00
2018-08-28T03:54:32.019Z,4.00
2018-08-28T03:55:32.125Z,4.00
2018-08-28T03:56:32.209Z,4.00
2018-08-28T03:57:32.305Z,0.00
2018-08-28T03:58:32.399Z,4.00
2018-08-28T03:59:32.497Z,4.00
2018-08-28T04:00:32.592Z,4.00
2018-08-28T04:01:32.687Z,4.00
2018-08-28T04:02:32.780Z,8.00
2018-08-28T04:03:32.934Z,4.00
2018-08-28T04:04:32.978Z,8.00
2018-08-28T04:05:33.069Z,8.00
2018-08-28T04:06:33.164Z,8.00
2018-08-28T04:07:33.262Z,12.00
2018-08-28T04:08:33.359Z,16.00
2018-08-28T04:09:33.455Z,16.00
2018-08-28T04:10:33.555Z,20.00
2018-08-28T04:11:33.643Z,20.00
2018-08-28T04:12:33.743Z,24.00
2018-08-28T04:13:33.841Z,28.00
2018-08-28T04:14:33.938Z,32.00
2018-08-28T04:15:34.036Z,36.00
2018-08-28T04:16:34.135Z,40.00
2018-08-28T04:17:34.231Z,48.00
2018-08-28T04:18:34.322Z,56.00
2018-08-28T04:19:34.424Z,56.00
2018-08-28T04:20:34.518Z,68.00
2018-08-28T04:21:34.609Z,76.00
2018-08-28T04:22:34.793Z,84.00
2018-08-28T04:23:34.806Z,92.00
2018-08-28T04:24:34.902Z,104.00
2018-08-28T04:25:34.998Z,112.00
2018-08-28T04:26:35.097Z,124.00
2018-08-28T04:27:35.197Z,136.00
2018-08-28T04:28:35.296Z,148.00
2018-08-28T04:29:35.391Z,160.00
2018-08-28T04:30:35.569Z,176.00
2018-08-28T04:31:35.575Z,192.00
2018-08-28T04:32:35.682Z,212.00
2018-08-28T04:33:35.773Z,224.00
2018-08-28T04:34:35.871Z,244.00
2018-08-28T04:35:35.967Z,264.00
2018-08-28T04:36:36.059Z,284.00
2018-08-28T04:37:36.155Z,304.00
2018-08-28T04:38:36.254Z,332.00
2018-08-28T04:39:36.356Z,356.00
2018-08-28T04:40:36.444Z,376.00
2018-08-28T04:41:36.545Z,404.00
2018-08-28T04:42:36.641Z,432.00
2018-08-28T04:43:36.743Z,464.00
2018-08-28T04:44:36.847Z,488.00
2018-08-28T04:45:37.866Z,524.00
2018-08-28T04:46:36.967Z,556.00
2018-08-28T04:47:37.071Z,588.00
2018-08-28T04:48:37.170Z,620.00
2018-08-28T04:49:37.263Z,656.00
2018-08-28T04:50:37.357Z,692.00
2018-08-28T04:51:37.454Z,728.00
2018-08-28T04:52:37.555Z,764.00
2018-08-28T04:53:37.657Z,800.00
2018-08-28T04:54:37.760Z,840.00
2018-08-28T04:55:37.862Z,880.00
2018-08-28T04:56:38.053Z,916.00
2018-08-28T04:57:38.039Z,956.00
2018-08-28T04:58:38.133Z,996.00
2018-08-28T04:59:38.227Z,1040.00
2018-08-28T05:00:38.332Z,1080.00
2018-08-28T05:01:38.420Z,1116.00
2018-08-28T05:02:38.518Z,1152.00
2018-08-28T05:03:38.613Z,1204.00
2018-08-28T05:04:38.711Z,1244.00
2018-08-28T05:05:38.805Z,1284.00
2018-08-28T05:06:38.902Z,1324.00
2018-08-28T05:07:38.997Z,1372.00
2018-08-28T05:08:39.094Z,1412.00
2018-08-28T05:09:39.187Z,1456.00
2018-08-28T05:10:39.282Z,1496.00
2018-08-28T05:11:39.382Z,1556.00
2018-08-28T05:12:39.467Z,1584.00
2018-08-28T05:13:39.561Z,1628.00
2018-08-28T05:14:39.659Z,1672.00
2018-08-28T05:15:39.742Z,1708.00
2018-08-28T05:16:39.837Z,1752.00
2018-08-28T05:17:39.964Z,1792.00
2018-08-28T05:18:40.058Z,1836.00
2018-08-28T05:19:40.154Z,1852.00
2018-08-28T05:20:40.251Z,1916.00
2018-08-28T05:21:40.348Z,1956.00
2018-08-28T05:22:40.438Z,1996.00
2018-08-28T05:23:40.535Z,2036.00
2018-08-28T05:24:40.635Z,2076.00
2018-08-28T05:25:40.730Z,2112.00
2018-08-28T05:26:40.825Z,2152.00
2018-08-28T05:27:40.918Z,2192.00
2018-08-28T05:28:41.010Z,2232.00
2018-08-28T05:29:41.202Z,2268.00
2018-08-28T05:30:41.198Z,2304.00
2018-08-28T05:31:41.295Z,2340.00
2018-08-28T05:32:41.392Z,2380.00
2018-08-28T05:33:41.486Z,2416.00
2018-08-28T05:34:41.583Z,2452.00
2018-08-28T05:35:41.675Z,2488.00
2018-08-28T05:36:41.772Z,2528.00
2018-08-28T05:37:41.860Z,2568.00
2018-08-28T05:38:41.949Z,2600.00
2018-08-28T05:39:42.040Z,2632.00
2018-08-28T05:40:42.146Z,2668.00
2018-08-28T05:41:42.233Z,2716.00
2018-08-28T05:42:42.325Z,2728.00
2018-08-28T05:43:42.422Z,2752.00
2018-08-28T05:44:42.521Z,2788.00
2018-08-28T05:45:42.612Z,2824.00
2018-08-28T05:46:42.710Z,2848.00
2018-08-28T05:47:42.807Z,2880.00
2018-08-28T05:48:42.902Z,2904.00
2018-08-28T05:49:43.044Z,2944.00
2018-08-28T05:50:43.084Z,2964.00
2018-08-28T05:51:43.179Z,2992.00
2018-08-28T05:52:43.277Z,3016.00
2018-08-28T05:53:43.371Z,3036.00
2018-08-28T05:54:43.464Z,3068.00
2018-08-28T05:55:43.624Z,3100.00
2018-08-28T05:56:43.654Z,3132.00
2018-08-28T05:57:43.751Z,3160.00
2018-08-28T05:58:43.853Z,3188.00
2018-08-28T05:59:43.946Z,3224.00
2018-08-28T06:00:44.041Z,3256.00
2018-08-28T06:01:44.138Z,3288.00
2018-08-28T06:02:44.236Z,3608.00
2018-08-28T06:03:44.333Z,4204.00
2018-08-28T06:04:44.425Z,3564.00
2018-08-28T06:05:44.524Z,3508.00
2018-08-28T06:06:44.622Z,3512.00
2018-08-28T06:07:44.717Z,3636.00
2018-08-28T06:08:44.835Z,5092.00
2018-08-28T06:09:44.911Z,6712.00
2018-08-28T06:10:45.007Z,5336.00
2018-08-28T06:11:45.106Z,4860.00
2018-08-28T06:12:45.187Z,4888.00
2018-08-28T06:13:45.282Z,4764.00
2018-08-28T06:14:45.450Z,6192.00
2018-08-28T06:15:45.474Z,9020.00
2018-08-28T06:16:45.571Z,11196.00
2018-08-28T06:17:45.665Z,11872.00
2018-08-28T06:18:45.760Z,12028.00
2018-08-28T06:19:45.856Z,11532.00
2018-08-28T06:20:45.949Z,11276.00
2018-08-28T06:21:46.046Z,11732.00
2018-08-28T06:22:46.143Z,12176.00
2018-08-28T06:23:46.346Z,12220.00
2018-08-28T06:24:46.414Z,11216.00
2018-08-28T06:25:46.380Z,10404.00
2018-08-28T06:26:46.476Z,10428.00
2018-08-28T06:27:46.573Z,11136.00
2018-08-28T06:28:46.670Z,11964.00
2018-08-28T06:29:46.768Z,12544.00
2018-08-28T06:30:46.869Z,12200.00
2018-08-28T06:31:46.968Z,11524.00
2018-08-28T06:32:47.066Z,11296.00
2018-08-28T06:33:47.166Z,11868.00
2018-08-28T06:34:47.256Z,12524.00
2018-08-28T06:35:47.352Z,12304.00
2018-08-28T06:36:47.466Z,11812.00
2018-08-28T06:37:47.582Z,11376.00
2018-08-28T06:38:47.694Z,11436.00
2018-08-28T06:39:47.776Z,11936.00
2018-08-28T06:40:47.875Z,11952.00
2018-08-28T06:41:47.974Z,11052.00
2018-08-28T06:42:48.077Z,10216.00
2018-08-28T06:43:48.177Z,10404.00
2018-08-28T06:44:48.290Z,10924.00
2018-08-28T06:45:48.388Z,10712.00
2018-08-28T06:46:48.494Z,10128.00
2018-08-28T06:47:48.591Z,10228.00
2018-08-28T06:48:48.690Z,10428.00
2018-08-28T06:49:48.787Z,10424.00
2018-08-28T06:50:48.885Z,10340.00
2018-08-28T06:51:49.003Z,10184.00
2018-08-28T06:52:49.101Z,10100.00
2018-08-28T06:53:49.202Z,9808.00
2018-08-28T06:54:49.306Z,9292.00
2018-08-28T06:55:49.403Z,9432.00
2018-08-28T06:56:49.561Z,9872.00
2018-08-28T06:57:49.601Z,9588.00
2018-08-28T06:58:49.713Z,8992.00
2018-08-28T06:59:49.813Z,9200.00
2018-08-28T07:00:49.918Z,9640.00
2018-08-28T07:01:50.013Z,9524.00
2018-08-28T07:02:50.114Z,9216.00
2018-08-28T07:03:50.224Z,9536.00
2018-08-28T07:04:50.315Z,9824.00
2018-08-28T07:05:50.435Z,9144.00
2018-08-28T07:06:50.520Z,8460.00
2018-08-28T07:07:50.629Z,8568.00
2018-08-28T07:08:50.721Z,8348.00
2018-08-28T07:09:50.823Z,7740.00
2018-08-28T07:10:50.928Z,7888.00
2018-08-28T07:11:51.025Z,8120.00
2018-08-28T07:12:51.136Z,7852.00
2018-08-28T07:13:51.236Z,8048.00
2018-08-28T07:14:51.337Z,8236.00
2018-08-28T07:15:51.437Z,7596.00
2018-08-28T07:16:51.541Z,7172.00
2018-08-28T07:17:51.639Z,7300.00
2018-08-28T07:18:51.816Z,7032.00
2018-08-28T07:19:51.852Z,6476.00
2018-08-28T07:20:51.953Z,5844.00
2018-08-28T07:21:52.052Z,5252.00
2018-08-28T07:22:52.153Z,4960.00
2018-08-28T07:23:52.253Z,4952.00
2018-08-28T07:24:52.352Z,4964.00
2018-08-28T07:25:52.469Z,4976.00
2018-08-28T07:26:52.589Z,4992.00
2018-08-28T07:27:52.657Z,5004.00
2018-08-28T07:28:52.757Z,5016.00
2018-08-28T07:29:52.856Z,4992.00
2018-08-28T07:30:52.956Z,5036.00
2018-08-28T07:31:53.161Z,5048.00
2018-08-28T07:32:53.155Z,5056.00
2018-08-28T07:33:53.269Z,5072.00
2018-08-28T07:34:53.368Z,5084.00
2018-08-28T07:35:53.466Z,5104.00
2018-08-28T07:36:53.565Z,5116.00
2018-08-28T07:37:53.665Z,5124.00
2018-08-28T07:38:53.765Z,5136.00
2018-08-28T07:39:53.863Z,5148.00
2018-08-28T07:40:53.985Z,5140.00
2018-08-28T07:41:54.082Z,5156.00
2018-08-28T07:42:54.249Z,5156.00
2018-08-28T07:43:54.280Z,5156.00
2018-08-28T07:44:54.379Z,5144.00
2018-08-28T07:45:54.481Z,5152.00
2018-08-28T07:46:54.580Z,5176.00
2018-08-28T07:47:54.698Z,5176.00
2018-08-28T07:48:54.796Z,5172.00
2018-08-28T07:49:54.894Z,5220.00
2018-08-28T07:50:54.994Z,5264.00
2018-08-28T07:51:55.093Z,5224.00
2018-08-28T07:52:55.194Z,5236.00
2018-08-28T07:53:55.348Z,5244.00
2018-08-28T07:54:55.412Z,5244.00
2018-08-28T07:55:55.509Z,5260.00
2018-08-28T07:56:55.609Z,5356.00
2018-08-28T07:57:55.708Z,5292.00
2018-08-28T07:58:55.807Z,5336.00
2018-08-28T07:59:55.908Z,5364.00
2018-08-28T08:00:56.004Z,5396.00
2018-08-28T08:01:56.125Z,5440.00
2018-08-28T08:02:56.226Z,5464.00
2018-08-28T08:03:56.321Z,5584.00
2018-08-28T08:04:56.420Z,5476.00
2018-08-28T08:05:56.521Z,5496.00
2018-08-28T08:06:56.619Z,5592.00
2018-08-28T08:07:56.713Z,5624.00
2018-08-28T08:08:56.813Z,5564.00
2018-08-28T08:09:56.911Z,5568.00
2018-08-28T08:10:57.011Z,5584.00
2018-08-28T08:11:57.113Z,5572.00
2018-08-28T08:12:57.211Z,5632.00
2018-08-28T08:13:57.310Z,5576.00
2018-08-28T08:14:57.409Z,5432.00
2018-08-28T08:15:57.528Z,5556.00
2018-08-28T08:16:57.603Z,5596.00
2018-08-28T08:17:57.701Z,5676.00
2018-08-28T08:18:57.800Z,5756.00
2018-08-28T08:19:57.898Z,5788.00
2018-08-28T08:20:57.996Z,5916.00
2018-08-28T08:21:58.098Z,5920.00
2018-08-28T08:22:58.186Z,6060.00
2018-08-28T08:23:58.283Z,6132.00
2018-08-28T08:24:58.381Z,6152.00
2018-08-28T08:25:58.479Z,6156.00
2018-08-28T08:26:58.578Z,6128.00
2018-08-28T08:27:58.734Z,6156.00
2018-08-28T08:28:58.779Z,6276.00
2018-08-28T08:29:58.874Z,6272.00
2018-08-28T08:30:58.971Z,6240.00
2018-08-28T08:31:59.078Z,6372.00
2018-08-28T08:32:59.168Z,6472.00
2018-08-28T08:33:59.267Z,6596.00
2018-08-28T08:34:59.366Z,6704.00
2018-08-28T08:35:59.479Z,6688.00
2018-08-28T08:36:59.582Z,6872.00
2018-08-28T08:37:59.678Z,6900.00
2018-08-28T08:38:59.775Z,7004.00
2018-08-28T08:39:59.868Z,6976.00
2018-08-28T08:42:31.946Z,6844.00
2018-08-28T08:43:32.043Z,6788.00
2018-08-28T08:44:32.142Z,6724.00
2018-08-28T08:45:32.240Z,6632.00
2018-08-28T08:46:32.341Z,6556.00
2018-08-28T08:47:32.430Z,6636.00
2018-08-28T08:48:32.541Z,6852.00
2018-08-28T08:49:32.625Z,6996.00
2018-08-28T08:50:32.728Z,7260.00
2018-08-28T08:51:32.824Z,7388.00
2018-08-28T08:52:32.924Z,7424.00
2018-08-28T08:53:33.023Z,7476.00
2018-08-28T08:54:33.123Z,7512.00
2018-08-28T08:55:33.225Z,7320.00
2018-08-28T08:56:33.321Z,7304.00
2018-08-28T08:57:33.418Z,7400.00
2018-08-28T08:58:33.519Z,7372.00
2018-08-28T08:59:33.625Z,7536.00
2018-08-28T09:00:33.726Z,7800.00
2018-08-28T09:01:33.827Z,7840.00
2018-08-28T09:02:33.964Z,7956.00
2018-08-28T09:03:34.027Z,7944.00
2018-08-28T09:04:34.127Z,7860.00
2018-08-28T09:05:34.226Z,7816.00
2018-08-28T09:06:34.329Z,7860.00
2018-08-28T09:07:34.436Z,7720.00
2018-08-28T09:08:34.539Z,7668.00
2018-08-28T09:09:34.640Z,7664.00
2018-08-28T09:10:34.735Z,7612.00
2018-08-28T09:11:34.841Z,7600.00
2018-08-28T09:12:34.936Z,7512.00
2018-08-28T09:13:35.328Z,7428.00
2018-08-28T09:14:35.104Z,7364.00
2018-08-28T09:15:35.202Z,7368.00
2018-08-28T09:16:35.303Z,7628.00
2018-08-28T09:17:35.406Z,7464.00
2018-08-28T09:18:35.510Z,7552.00
2018-08-28T09:19:35.609Z,7528.00
2018-08-28T09:20:35.712Z,7644.00
2018-08-28T09:21:35.800Z,7428.00
2018-08-28T09:22:35.913Z,7296.00
2018-08-28T09:23:36.013Z,7036.00
2018-08-28T09:24:36.116Z,6656.00
2018-08-28T09:25:36.213Z,5688.00
2018-08-28T09:26:36.313Z,5008.00
2018-08-28T09:27:36.417Z,5136.00
2018-08-28T09:28:36.515Z,5276.00
2018-08-28T09:29:36.614Z,4376.00
2018-08-28T09:30:36.709Z,4196.00
2018-08-28T09:31:36.887Z,4332.00
2018-08-28T09:32:36.914Z,4088.00
2018-08-28T09:33:37.013Z,4084.00
2018-08-28T09:34:37.115Z,3996.00
2018-08-28T09:35:37.208Z,3944.00
2018-08-28T09:36:37.307Z,3948.00
2018-08-28T09:37:37.410Z,3972.00
2018-08-28T09:38:37.560Z,3992.00
2018-08-28T09:39:37.609Z,4024.00
2018-08-28T09:40:37.710Z,4096.00
2018-08-28T09:41:37.811Z,4176.00
2018-08-28T09:42:37.910Z,4252.00
2018-08-28T09:43:38.065Z,4316.00
2018-08-28T09:44:38.114Z,4368.00
2018-08-28T09:45:38.212Z,4388.00
2018-08-28T09:46:38.314Z,4432.00
2018-08-28T09:47:38.421Z,4492.00
2018-08-28T09:48:38.517Z,4564.00
2018-08-28T09:49:38.618Z,4652.00
2018-08-28T09:50:38.744Z,4732.00
2018-08-28T09:51:38.821Z,4764.00
2018-08-28T09:52:38.922Z,4768.00
2018-08-28T09:53:39.027Z,4748.00
2018-08-28T09:54:39.136Z,4808.00
2018-08-28T09:55:39.238Z,4836.00
2018-08-28T09:56:39.383Z,4784.00
2018-08-28T09:57:39.449Z,4764.00
2018-08-28T09:58:39.550Z,4780.00
2018-08-28T09:59:39.649Z,4868.00
2018-08-28T10:00:39.750Z,4908.00
2018-08-28T10:01:39.849Z,5100.00
2018-08-28T10:02:39.949Z,5184.00
2018-08-28T10:03:40.054Z,5236.00
2018-08-28T10:04:40.162Z,5184.00
2018-08-28T10:05:40.259Z,5192.00
2018-08-28T10:06:40.359Z,5140.00
2018-08-28T10:07:40.469Z,6032.00
2018-08-28T10:08:40.559Z,5880.00
2018-08-28T10:09:40.660Z,5308.00
2018-08-28T10:10:40.758Z,5268.00
2018-08-28T10:11:40.859Z,5396.00
2018-08-28T10:12:40.959Z,5432.00
2018-08-28T10:13:41.059Z,7072.00
2018-08-28T10:14:41.162Z,6908.00
2018-08-28T10:15:41.260Z,6480.00
2018-08-28T10:16:41.360Z,8260.00
2018-08-28T10:17:41.460Z,8328.00
2018-08-28T10:18:41.562Z,8500.00
2018-08-28T10:19:41.662Z,8576.00
2018-08-28T10:20:41.763Z,8644.00
2018-08-28T10:21:41.867Z,8740.00
2018-08-28T10:22:42.023Z,8884.00
2018-08-28T10:23:42.072Z,8936.00
2018-08-28T10:24:42.169Z,7892.00
2018-08-28T10:25:42.268Z,7168.00
2018-08-28T10:26:42.387Z,7548.00
2018-08-28T10:27:42.487Z,8668.00
2018-08-28T10:28:42.587Z,7548.00
2018-08-28T10:29:42.703Z,6968.00
2018-08-28T10:30:42.790Z,6952.00
2018-08-28T10:31:42.891Z,6920.00
2018-08-28T10:32:42.996Z,6848.00
2018-08-28T10:33:43.092Z,6760.00
2018-08-28T10:34:43.194Z,6720.00
2018-08-28T10:35:43.300Z,6796.00
2018-08-28T10:36:43.394Z,6624.00
2018-08-28T10:37:43.497Z,6592.00
2018-08-28T10:38:43.601Z,6576.00
2018-08-28T10:39:43.704Z,6520.00
2018-08-28T10:40:43.802Z,7124.00
2018-08-28T10:41:43.902Z,7100.00
2018-08-28T10:42:44.004Z,6676.00
2018-08-28T10:43:44.105Z,6488.00
2018-08-28T10:44:44.207Z,6968.00
2018-08-28T10:45:44.308Z,7376.00
2018-08-28T10:46:44.643Z,7656.00
2018-08-28T10:47:44.513Z,8116.00
2018-08-28T10:48:44.612Z,7328.00
2018-08-28T10:49:44.713Z,7504.00
2018-08-28T10:50:44.812Z,8140.00
2018-08-28T10:51:44.924Z,6576.00
2018-08-28T10:52:45.061Z,6528.00
2018-08-28T10:53:45.124Z,6592.00
2018-08-28T10:54:45.225Z,6588.00
2018-08-28T10:55:45.327Z,6572.00
2018-08-28T10:56:45.427Z,6532.00
2018-08-28T10:57:45.528Z,6536.00
2018-08-28T10:58:45.749Z,6520.00
2018-08-28T10:59:45.732Z,6680.00
2018-08-28T11:00:45.833Z,6956.00
2018-08-28T11:01:45.934Z,7128.00
2018-08-28T11:02:46.033Z,6948.00
2018-08-28T11:03:46.136Z,6944.00
2018-08-28T11:04:46.239Z,6908.00
2018-08-28T11:05:46.339Z,6744.00
2018-08-28T11:06:46.441Z,6748.00
2018-08-28T11:07:46.546Z,6412.00
2018-08-28T11:08:46.710Z,6504.00
2018-08-28T11:09:46.752Z,6512.00
2018-08-28T11:10:46.849Z,6052.00
2018-08-28T11:11:46.949Z,6016.00
2018-08-28T11:12:47.053Z,5780.00
2018-08-28T11:13:47.153Z,5696.00
2018-08-28T11:14:47.256Z,5588.00
2018-08-28T11:15:47.356Z,5524.00
2018-08-28T11:16:47.457Z,6628.00
2018-08-28T11:17:47.561Z,5972.00
2018-08-28T11:18:47.660Z,6796.00
2018-08-28T11:19:47.765Z,5032.00
2018-08-28T11:20:47.867Z,5140.00
2018-08-28T11:21:47.965Z,4904.00
2018-08-28T11:22:48.085Z,5140.00
2018-08-28T11:23:48.167Z,4800.00
2018-08-28T11:24:48.269Z,5284.00
2018-08-28T11:25:48.369Z,6436.00
2018-08-28T11:26:48.474Z,6396.00
2018-08-28T11:27:48.574Z,6292.00
2018-08-28T11:28:48.678Z,6264.00
2018-08-28T11:29:48.778Z,6268.00
2018-08-28T11:30:48.880Z,6376.00
2018-08-28T11:31:48.980Z,6280.00
2018-08-28T11:32:49.083Z,6144.00
2018-08-28T11:33:49.184Z,5496.00
2018-08-28T11:34:49.288Z,6328.00
2018-08-28T11:35:49.412Z,6392.00
2018-08-28T11:36:49.489Z,6676.00
2018-08-28T11:37:49.590Z,6408.00
2018-08-28T11:38:49.693Z,6388.00
2018-08-28T11:39:49.793Z,6392.00
2018-08-28T11:40:49.890Z,6396.00
2018-08-28T11:41:49.994Z,6356.00
2018-08-28T11:42:50.098Z,6320.00
2018-08-28T11:43:50.187Z,6360.00
2018-08-28T11:44:50.295Z,6172.00
2018-08-28T11:45:50.396Z,6440.00
2018-08-28T11:46:50.500Z,6448.00
2018-08-28T11:47:50.603Z,6572.00
2018-08-28T11:48:50.701Z,6696.00
2018-08-28T11:49:50.805Z,6780.00
2018-08-28T11:50:50.906Z,6896.00
2018-08-28T11:51:51.008Z,6996.00
2018-08-28T11:52:51.107Z,7192.00
2018-08-28T11:53:51.207Z,13212.00
2018-08-28T11:54:51.309Z,7088.00
2018-08-28T11:55:51.407Z,7264.00
2018-08-28T11:56:51.507Z,7264.00
2018-08-28T11:57:51.611Z,7156.00
2018-08-28T11:58:51.718Z,7072.00
2018-08-28T11:59:51.817Z,7000.00
2018-08-28T12:00:51.921Z,6804.00
2018-08-28T12:01:52.032Z,6824.00
2018-08-28T12:02:52.123Z,6696.00
2018-08-28T12:03:52.224Z,6672.00
2018-08-28T12:04:52.339Z,6648.00
2018-08-28T12:05:52.431Z,6664.00
2018-08-28T12:06:52.592Z,6588.00
2018-08-28T12:07:52.642Z,6648.00
2018-08-28T12:08:52.737Z,6636.00
2018-08-28T12:09:52.840Z,6644.00
2018-08-28T12:10:52.940Z,6524.00
2018-08-28T12:11:53.041Z,6468.00
2018-08-28T12:12:53.144Z,6444.00
2018-08-28T12:13:53.244Z,6588.00
2018-08-28T12:14:53.347Z,6456.00
2018-08-28T12:15:53.449Z,6316.00
2018-08-28T12:16:53.555Z,7100.00
2018-08-28T12:17:53.655Z,6268.00
2018-08-28T12:18:53.758Z,6632.00
2018-08-28T12:19:53.868Z,6252.00
2018-08-28T12:20:54.006Z,6256.00
2018-08-28T12:21:54.061Z,7508.00
2018-08-28T12:22:54.164Z,12620.00
2018-08-28T12:23:54.270Z,6380.00
2018-08-28T12:24:54.367Z,6452.00
2018-08-28T12:25:54.470Z,6468.00
2018-08-28T12:26:54.575Z,6576.00
2018-08-28T12:27:54.671Z,6640.00
2018-08-28T12:28:54.774Z,6640.00
2018-08-28T12:29:54.876Z,6744.00
2018-08-28T12:30:54.977Z,6872.00
2018-08-28T12:31:55.079Z,6732.00